DLH3CF EDDF-KIAH
Flight info
| Callsign | DLH3CF |
|---|---|
| Flight time | N/A |
| Altitude | 32000 |
| Route | OBOKA4S OBOKA Z29 TORNU DCT BATAK DCT GALSO Q63 ERING L179 UGBET Q60 OKSAW DCT BIBPE DCT FELCA DCT FADZU DCT OFSOX DCT SLANY DCT TOBOR/M086F340 DCT 53N020W 53N030W 5230N04000W 50N050W DCT ELSIR/N0488F360 N398B TUSKY Q475 COPLY Q75 JERSY/N0491F380 Q75 GVE Q34 MAULS Q40 AEX ZEEKK2 |
| Aircraft | B744/H-SDE3FGHIM1M2RWXY/LB1 |
Departure
| Time | 2026-05-06 05:36 |
|---|---|
| Airport | Frankfurt Main Airport (EDDF) |
Arrival
| Time | N/A |
|---|---|
| Airport | George Bush Intercontinental Airport (KIAH) |
| Time | Latitude | Longitude | Altitude | Speed | Heading |
|---|---|---|---|---|---|
| 2026-05-06 05:32 | 50.03934 | 8.54672 | 365 ft | 20 kts | 251° |
| 2026-05-06 05:32 | 50.03866 | 8.54400 | 364 ft | 31 kts | 239° |
| 2026-05-06 05:33 | 50.03771 | 8.54112 | 359 ft | 29 kts | 251° |
| 2026-05-06 05:33 | 50.03705 | 8.53829 | 359 ft | 27 kts | 249° |
| 2026-05-06 05:33 | 50.03635 | 8.53544 | 355 ft | 32 kts | 248° |
| 2026-05-06 05:33 | 50.03555 | 8.53211 | 353 ft | 33 kts | 250° |
| 2026-05-06 05:34 | 50.03480 | 8.52888 | 352 ft | 31 kts | 246° |
| 2026-05-06 05:34 | 50.03399 | 8.52625 | 351 ft | 23 kts | 221° |
| 2026-05-06 05:34 | 50.03296 | 8.52594 | 353 ft | 7 kts | 178° |
| 2026-05-06 05:34 | 50.03250 | 8.52597 | 352 ft | 6 kts | 179° |
| 2026-05-06 05:35 | 50.03208 | 8.52597 | 346 ft | 6 kts | 181° |
| 2026-05-06 05:35 | 50.03020 | 8.52597 | 354 ft | 68 kts | 177° |
| 2026-05-06 05:35 | 50.02255 | 8.52607 | 347 ft | 149 kts | 180° |
| 2026-05-06 05:35 | 50.01011 | 8.52622 | 452 ft | 201 kts | 179° |
| 2026-05-06 05:36 | 49.99635 | 8.52645 | 1522 ft | 190 kts | 184° |
| 2026-05-06 05:36 | 49.98332 | 8.52528 | 2540 ft | 189 kts | 196° |
| 2026-05-06 05:36 | 49.97135 | 8.51651 | 2426 ft | 209 kts | 225° |
| 2026-05-06 05:36 | 49.96065 | 8.49882 | 2679 ft | 227 kts | 229° |
| 2026-05-06 05:37 | 49.95010 | 8.48171 | 3866 ft | 218 kts | 227° |
| 2026-05-06 05:37 | 49.93908 | 8.46521 | 4893 ft | 222 kts | 225° |
| 2026-05-06 05:37 | 49.92782 | 8.44860 | 5820 ft | 226 kts | 225° |
| 2026-05-06 05:37 | 49.91623 | 8.43130 | 6533 ft | 238 kts | 225° |
| 2026-05-06 05:38 | 49.90393 | 8.41286 | 7167 ft | 252 kts | 225° |
| 2026-05-06 05:38 | 49.89109 | 8.39366 | 7971 ft | 259 kts | 225° |
| 2026-05-06 05:38 | 49.88030 | 8.37127 | 8806 ft | 264 kts | 245° |
| 2026-05-06 05:38 | 49.87570 | 8.34355 | 9663 ft | 271 kts | 266° |
| 2026-05-06 05:39 | 49.87848 | 8.31421 | 10361 ft | 284 kts | 289° |
| 2026-05-06 05:39 | 49.88830 | 8.28656 | 10941 ft | 302 kts | 298° |
| 2026-05-06 05:39 | 49.90009 | 8.25843 | 11447 ft | 321 kts | 300° |
| 2026-05-06 05:39 | 49.91271 | 8.22872 | 11984 ft | 339 kts | 300° |
| 2026-05-06 05:40 | 49.92577 | 8.19702 | 12562 ft | 358 kts | 299° |
| 2026-05-06 05:40 | 49.93984 | 8.16395 | 13157 ft | 379 kts | 306° |
| 2026-05-06 05:40 | 49.95880 | 8.13460 | 13715 ft | 400 kts | 315° |
| 2026-05-06 05:40 | 49.98053 | 8.10648 | 14429 ft | 412 kts | 318° |
| 2026-05-06 05:41 | 50.00303 | 8.07794 | 15244 ft | 421 kts | 317° |
| 2026-05-06 05:41 | 50.02535 | 8.04788 | 16078 ft | 428 kts | 315° |
| 2026-05-06 05:41 | 50.04775 | 8.01703 | 16926 ft | 435 kts | 316° |
| 2026-05-06 05:41 | 50.07082 | 7.98603 | 17781 ft | 442 kts | 316° |
| 2026-05-06 05:42 | 50.09439 | 7.95481 | 18546 ft | 448 kts | 316° |
| 2026-05-06 05:42 | 50.11816 | 7.92297 | 19280 ft | 453 kts | 316° |
| 2026-05-06 05:42 | 50.14210 | 7.89049 | 20027 ft | 458 kts | 316° |
| 2026-05-06 05:42 | 50.16630 | 7.85772 | 20804 ft | 463 kts | 316° |
| 2026-05-06 05:43 | 50.19083 | 7.82471 | 21547 ft | 469 kts | 316° |
| 2026-05-06 05:43 | 50.21561 | 7.79128 | 22291 ft | 474 kts | 317° |
| 2026-05-06 05:43 | 50.24075 | 7.75743 | 22985 ft | 480 kts | 319° |
| 2026-05-06 05:43 | 50.26893 | 7.72858 | 23614 ft | 489 kts | 331° |
| 2026-05-06 05:44 | 50.30009 | 7.70648 | 24195 ft | 494 kts | 335° |
| 2026-05-06 05:44 | 50.33189 | 7.68529 | 24748 ft | 499 kts | 335° |
| 2026-05-06 05:44 | 50.36397 | 7.66370 | 25301 ft | 503 kts | 335° |
| 2026-05-06 05:44 | 50.39607 | 7.64141 | 25826 ft | 507 kts | 335° |
| 2026-05-06 05:45 | 50.42848 | 7.61881 | 26345 ft | 511 kts | 336° |
| 2026-05-06 05:45 | 50.46075 | 7.59671 | 26839 ft | 515 kts | 336° |
| 2026-05-06 05:45 | 50.49403 | 7.57398 | 27334 ft | 519 kts | 336° |
| 2026-05-06 05:45 | 50.52727 | 7.55100 | 27826 ft | 522 kts | 336° |
| 2026-05-06 05:46 | 50.56033 | 7.52676 | 28294 ft | 526 kts | 330° |
| 2026-05-06 05:46 | 50.59112 | 7.49677 | 28923 ft | 525 kts | 327° |
| 2026-05-06 05:46 | 50.62151 | 7.46502 | 29676 ft | 523 kts | 326° |
| 2026-05-06 05:46 | 50.65175 | 7.43329 | 30287 ft | 521 kts | 327° |
| 2026-05-06 05:47 | 50.68215 | 7.40235 | 30869 ft | 519 kts | 328° |
| 2026-05-06 05:47 | 50.71237 | 7.37111 | 31428 ft | 518 kts | 323° |
| 2026-05-06 05:47 | 50.73925 | 7.33335 | 31968 ft | 517 kts | 311° |
| 2026-05-06 05:47 | 50.76094 | 7.28844 | 32501 ft | 515 kts | 300° |
| 2026-05-06 05:48 | 50.77788 | 7.23862 | 33018 ft | 514 kts | 295° |
| 2026-05-06 05:48 | 50.79378 | 7.18801 | 33507 ft | 513 kts | 295° |
| 2026-05-06 05:48 | 50.80983 | 7.13774 | 33961 ft | 513 kts | 296° |
| 2026-05-06 05:48 | 50.82618 | 7.08828 | 34383 ft | 513 kts | 296° |
| 2026-05-06 05:49 | 50.84266 | 7.03811 | 34806 ft | 513 kts | 295° |
| 2026-05-06 05:49 | 50.85875 | 6.98787 | 35189 ft | 512 kts | 295° |
| 2026-05-06 05:49 | 50.87483 | 6.93741 | 35564 ft | 512 kts | 295° |
| 2026-05-06 05:49 | 50.89106 | 6.88714 | 35931 ft | 512 kts | 295° |
| 2026-05-06 05:50 | 50.90728 | 6.83704 | 36289 ft | 512 kts | 295° |
| 2026-05-06 05:50 | 50.92344 | 6.78661 | 36653 ft | 512 kts | 295° |
| 2026-05-06 05:50 | 50.93946 | 6.73625 | 37002 ft | 512 kts | 295° |
| 2026-05-06 05:50 | 50.95554 | 6.68584 | 37313 ft | 512 kts | 295° |
| 2026-05-06 05:51 | 50.97159 | 6.63562 | 37624 ft | 513 kts | 295° |